sensor_id;sensor_type;location;lat;lon;timestamp;P1;durP1;ratioP1;P2;durP2;ratioP2
60370;SDS011;48550;40.588;49.684;2022-12-07T00:01:31;7.13;;;4.15;;
60370;SDS011;48550;40.588;49.684;2022-12-07T00:03:59;8.52;;;3.78;;
60370;SDS011;48550;40.588;49.684;2022-12-07T00:06:30;9.68;;;4.15;;
60370;SDS011;48550;40.588;49.684;2022-12-07T00:08:57;9.75;;;4.18;;
60370;SDS011;48550;40.588;49.684;2022-12-07T00:11:23;7.70;;;3.72;;
60370;SDS011;48550;40.588;49.684;2022-12-07T00:13:52;8.02;;;4.05;;
60370;SDS011;48550;40.588;49.684;2022-12-07T00:16:20;8.43;;;3.88;;
60370;SDS011;48550;40.588;49.684;2022-12-07T00:18:48;7.53;;;4.25;;
60370;SDS011;48550;40.588;49.684;2022-12-07T00:21:15;8.65;;;3.85;;
60370;SDS011;48550;40.588;49.684;2022-12-07T00:23:44;8.23;;;3.80;;
60370;SDS011;48550;40.588;49.684;2022-12-07T00:26:12;8.93;;;3.72;;
60370;SDS011;48550;40.588;49.684;2022-12-07T00:28:48;6.35;;;3.53;;
60370;SDS011;48550;40.588;49.684;2022-12-07T00:31:16;8.50;;;3.58;;
60370;SDS011;48550;40.588;49.684;2022-12-07T00:33:43;12.85;;;4.13;;
60370;SDS011;48550;40.588;49.684;2022-12-07T00:36:10;8.07;;;3.60;;
60370;SDS011;48550;40.588;49.684;2022-12-07T00:38:38;9.18;;;4.03;;
60370;SDS011;48550;40.588;49.684;2022-12-07T00:41:05;6.72;;;3.63;;
60370;SDS011;48550;40.588;49.684;2022-12-07T00:43:32;12.00;;;3.75;;
60370;SDS011;48550;40.588;49.684;2022-12-07T00:45:58;9.77;;;3.70;;
60370;SDS011;48550;40.588;49.684;2022-12-07T00:48:24;8.45;;;3.80;;
60370;SDS011;48550;40.588;49.684;2022-12-07T00:50:50;7.93;;;3.40;;
60370;SDS011;48550;40.588;49.684;2022-12-07T00:53:16;6.93;;;3.22;;
60370;SDS011;48550;40.588;49.684;2022-12-07T00:55:42;6.90;;;3.00;;
60370;SDS011;48550;40.588;49.684;2022-12-07T00:58:09;6.35;;;3.20;;
60370;SDS011;48550;40.588;49.684;2022-12-07T01:00:35;6.63;;;3.28;;
60370;SDS011;48550;40.588;49.684;2022-12-07T01:03:03;9.50;;;3.58;;
60370;SDS011;48550;40.588;49.684;2022-12-07T01:05:29;6.78;;;3.30;;
60370;SDS011;48550;40.588;49.684;2022-12-07T01:07:55;8.25;;;3.40;;
60370;SDS011;48550;40.588;49.684;2022-12-07T01:10:21;5.95;;;3.15;;
60370;SDS011;48550;40.588;49.684;2022-12-07T01:12:47;7.45;;;3.08;;
60370;SDS011;48550;40.588;49.684;2022-12-07T01:15:12;6.75;;;3.60;;
60370;SDS011;48550;40.588;49.684;2022-12-07T01:17:38;9.30;;;4.28;;
60370;SDS011;48550;40.588;49.684;2022-12-07T01:20:04;7.57;;;3.75;;
60370;SDS011;48550;40.588;49.684;2022-12-07T01:22:31;7.53;;;3.33;;
60370;SDS011;48550;40.588;49.684;2022-12-07T01:25:01;7.10;;;3.20;;
60370;SDS011;48550;40.588;49.684;2022-12-07T01:27:26;11.25;;;4.07;;
60370;SDS011;48550;40.588;49.684;2022-12-07T01:29:52;7.70;;;3.58;;
60370;SDS011;48550;40.588;49.684;2022-12-07T01:32:18;12.88;;;3.58;;
60370;SDS011;48550;40.588;49.684;2022-12-07T01:34:43;8.32;;;3.70;;
60370;SDS011;48550;40.588;49.684;2022-12-07T01:37:09;8.45;;;3.45;;
60370;SDS011;48550;40.588;49.684;2022-12-07T01:39:35;11.13;;;4.20;;
60370;SDS011;48550;40.588;49.684;2022-12-07T01:42:00;8.85;;;3.70;;
60370;SDS011;48550;40.588;49.684;2022-12-07T01:44:27;9.48;;;3.53;;
60370;SDS011;48550;40.588;49.684;2022-12-07T01:47:01;9.02;;;3.22;;
60370;SDS011;48550;40.588;49.684;2022-12-07T01:49:40;8.82;;;3.58;;
60370;SDS011;48550;40.588;49.684;2022-12-07T01:54:41;9.02;;;3.30;;
60370;SDS011;48550;40.588;49.684;2022-12-07T01:57:09;8.93;;;3.70;;
60370;SDS011;48550;40.588;49.684;2022-12-07T01:59:37;8.27;;;3.67;;
60370;SDS011;48550;40.588;49.684;2022-12-07T02:02:04;6.93;;;3.83;;
60370;SDS011;48550;40.588;49.684;2022-12-07T02:04:35;11.57;;;3.90;;
60370;SDS011;48550;40.588;49.684;2022-12-07T02:07:01;8.77;;;3.58;;
60370;SDS011;48550;40.588;49.684;2022-12-07T02:09:28;6.07;;;3.38;;
60370;SDS011;48550;40.588;49.684;2022-12-07T02:11:54;9.13;;;3.67;;
60370;SDS011;48550;40.588;49.684;2022-12-07T02:14:20;9.75;;;4.25;;
60370;SDS011;48550;40.588;49.684;2022-12-07T02:22:35;7.18;;;3.05;;
60370;SDS011;48550;40.588;49.684;2022-12-07T02:28:07;12.40;;;4.00;;
60370;SDS011;48550;40.588;49.684;2022-12-07T02:30:44;8.48;;;3.20;;
60370;SDS011;48550;40.588;49.684;2022-12-07T02:36:02;11.10;;;3.72;;
60370;SDS011;48550;40.588;49.684;2022-12-07T02:41:49;9.63;;;3.60;;
60370;SDS011;48550;40.588;49.684;2022-12-07T02:44:20;7.25;;;3.55;;
60370;SDS011;48550;40.588;49.684;2022-12-07T02:47:03;9.80;;;3.25;;
60370;SDS011;48550;40.588;49.684;2022-12-07T02:49:33;12.37;;;4.10;;
60370;SDS011;48550;40.588;49.684;2022-12-07T02:51:59;14.07;;;3.80;;
60370;SDS011;48550;40.588;49.684;2022-12-07T02:54:25;8.75;;;3.63;;
60370;SDS011;48550;40.588;49.684;2022-12-07T03:02:55;11.48;;;3.55;;
60370;SDS011;48550;40.588;49.684;2022-12-07T03:06:10;6.97;;;3.60;;
60370;SDS011;48550;40.588;49.684;2022-12-07T03:08:51;7.30;;;3.35;;
60370;SDS011;48550;40.588;49.684;2022-12-07T03:17:02;13.70;;;4.00;;
60370;SDS011;48550;40.588;49.684;2022-12-07T03:19:35;10.45;;;4.00;;
60370;SDS011;48550;40.588;49.684;2022-12-07T03:22:03;9.13;;;3.50;;
60370;SDS011;48550;40.588;49.684;2022-12-07T03:24:53;12.60;;;3.65;;
60370;SDS011;48550;40.588;49.684;2022-12-07T03:27:24;9.75;;;3.47;;
60370;SDS011;48550;40.588;49.684;2022-12-07T03:32:36;7.53;;;3.35;;
60370;SDS011;48550;40.588;49.684;2022-12-07T03:35:17;10.95;;;3.80;;
60370;SDS011;48550;40.588;49.684;2022-12-07T03:37:51;8.88;;;3.63;;
60370;SDS011;48550;40.588;49.684;2022-12-07T03:40:48;9.65;;;3.45;;
60370;SDS011;48550;40.588;49.684;2022-12-07T03:43:17;11.30;;;4.00;;
60370;SDS011;48550;40.588;49.684;2022-12-07T03:45:46;15.30;;;4.18;;
60370;SDS011;48550;40.588;49.684;2022-12-07T03:48:36;14.57;;;4.15;;
60370;SDS011;48550;40.588;49.684;2022-12-07T03:51:28;14.45;;;4.15;;
60370;SDS011;48550;40.588;49.684;2022-12-07T03:54:09;21.10;;;4.70;;
60370;SDS011;48550;40.588;49.684;2022-12-07T03:56:42;13.98;;;3.75;;
60370;SDS011;48550;40.588;49.684;2022-12-07T03:59:11;16.42;;;4.35;;
60370;SDS011;48550;40.588;49.684;2022-12-07T04:01:41;21.83;;;4.63;;
60370;SDS011;48550;40.588;49.684;2022-12-07T04:04:10;12.98;;;3.72;;
60370;SDS011;48550;40.588;49.684;2022-12-07T04:06:36;12.45;;;3.83;;
60370;SDS011;48550;40.588;49.684;2022-12-07T04:09:03;14.27;;;4.55;;
60370;SDS011;48550;40.588;49.684;2022-12-07T04:11:28;21.85;;;6.28;;
60370;SDS011;48550;40.588;49.684;2022-12-07T04:13:54;14.15;;;4.13;;
60370;SDS011;48550;40.588;49.684;2022-12-07T04:16:38;6.95;;;3.28;;
60370;SDS011;48550;40.588;49.684;2022-12-07T04:19:04;10.60;;;3.75;;
60370;SDS011;48550;40.588;49.684;2022-12-07T04:21:30;10.38;;;4.55;;
60370;SDS011;48550;40.588;49.684;2022-12-07T04:23:55;22.17;;;5.28;;
60370;SDS011;48550;40.588;49.684;2022-12-07T04:26:21;11.05;;;4.20;;
60370;SDS011;48550;40.588;49.684;2022-12-07T04:28:47;14.48;;;4.57;;
60370;SDS011;48550;40.588;49.684;2022-12-07T04:31:12;10.30;;;4.75;;
60370;SDS011;48550;40.588;49.684;2022-12-07T04:33:38;9.65;;;4.57;;
60370;SDS011;48550;40.588;49.684;2022-12-07T04:36:04;10.50;;;4.60;;
60370;SDS011;48550;40.588;49.684;2022-12-07T04:38:30;14.25;;;4.60;;
60370;SDS011;48550;40.588;49.684;2022-12-07T04:40:55;10.35;;;4.53;;
60370;SDS011;48550;40.588;49.684;2022-12-07T04:43:21;8.90;;;4.28;;
60370;SDS011;48550;40.588;49.684;2022-12-07T04:45:47;9.98;;;3.88;;
60370;SDS011;48550;40.588;49.684;2022-12-07T04:48:13;7.65;;;4.53;;
60370;SDS011;48550;40.588;49.684;2022-12-07T04:50:39;13.27;;;4.28;;
60370;SDS011;48550;40.588;49.684;2022-12-07T04:53:05;8.63;;;4.80;;
60370;SDS011;48550;40.588;49.684;2022-12-07T04:55:31;22.80;;;7.68;;
60370;SDS011;48550;40.588;49.684;2022-12-07T04:57:57;23.85;;;10.77;;
60370;SDS011;48550;40.588;49.684;2022-12-07T05:00:22;38.92;;;15.13;;
60370;SDS011;48550;40.588;49.684;2022-12-07T05:02:48;20.85;;;7.03;;
60370;SDS011;48550;40.588;49.684;2022-12-07T05:05:14;12.68;;;5.20;;
60370;SDS011;48550;40.588;49.684;2022-12-07T05:07:39;14.65;;;5.53;;
60370;SDS011;48550;40.588;49.684;2022-12-07T05:10:05;10.05;;;4.95;;
60370;SDS011;48550;40.588;49.684;2022-12-07T05:12:31;13.80;;;5.88;;
60370;SDS011;48550;40.588;49.684;2022-12-07T05:14:57;40.58;;;18.13;;
60370;SDS011;48550;40.588;49.684;2022-12-07T05:17:22;31.40;;;9.98;;
60370;SDS011;48550;40.588;49.684;2022-12-07T05:19:48;16.42;;;6.75;;
60370;SDS011;48550;40.588;49.684;2022-12-07T05:22:14;17.55;;;6.75;;
60370;SDS011;48550;40.588;49.684;2022-12-07T05:24:40;15.23;;;5.55;;
60370;SDS011;48550;40.588;49.684;2022-12-07T05:27:06;24.75;;;7.13;;
60370;SDS011;48550;40.588;49.684;2022-12-07T05:29:31;15.95;;;7.15;;
60370;SDS011;48550;40.588;49.684;2022-12-07T05:31:57;15.52;;;6.05;;
60370;SDS011;48550;40.588;49.684;2022-12-07T05:34:23;12.80;;;5.10;;
60370;SDS011;48550;40.588;49.684;2022-12-07T05:36:48;11.68;;;4.65;;
60370;SDS011;48550;40.588;49.684;2022-12-07T05:39:15;16.83;;;6.97;;
60370;SDS011;48550;40.588;49.684;2022-12-07T05:41:41;13.05;;;6.43;;
60370;SDS011;48550;40.588;49.684;2022-12-07T05:44:32;14.80;;;6.10;;
60370;SDS011;48550;40.588;49.684;2022-12-07T05:46:58;13.48;;;5.60;;
60370;SDS011;48550;40.588;49.684;2022-12-07T05:49:24;14.10;;;6.13;;
60370;SDS011;48550;40.588;49.684;2022-12-07T05:51:49;11.80;;;5.53;;
60370;SDS011;48550;40.588;49.684;2022-12-07T05:54:15;12.95;;;5.30;;
60370;SDS011;48550;40.588;49.684;2022-12-07T05:56:41;11.65;;;5.68;;
60370;SDS011;48550;40.588;49.684;2022-12-07T05:59:07;18.35;;;5.55;;
60370;SDS011;48550;40.588;49.684;2022-12-07T06:01:49;10.30;;;4.73;;
60370;SDS011;48550;40.588;49.684;2022-12-07T06:04:15;12.27;;;4.78;;
60370;SDS011;48550;40.588;49.684;2022-12-07T06:06:41;9.90;;;4.10;;
60370;SDS011;48550;40.588;49.684;2022-12-07T06:09:07;9.07;;;4.10;;
60370;SDS011;48550;40.588;49.684;2022-12-07T06:11:33;10.38;;;4.05;;
60370;SDS011;48550;40.588;49.684;2022-12-07T06:14:17;8.80;;;3.58;;
60370;SDS011;48550;40.588;49.684;2022-12-07T06:16:43;10.52;;;4.15;;
60370;SDS011;48550;40.588;49.684;2022-12-07T06:19:09;14.75;;;6.00;;
60370;SDS011;48550;40.588;49.684;2022-12-07T06:21:35;16.05;;;4.93;;
60370;SDS011;48550;40.588;49.684;2022-12-07T06:24:00;17.98;;;5.03;;
60370;SDS011;48550;40.588;49.684;2022-12-07T06:26:26;11.18;;;5.40;;
60370;SDS011;48550;40.588;49.684;2022-12-07T06:28:52;14.63;;;5.70;;
60370;SDS011;48550;40.588;49.684;2022-12-07T06:31:18;14.10;;;5.50;;
60370;SDS011;48550;40.588;49.684;2022-12-07T06:33:44;10.10;;;4.13;;
60370;SDS011;48550;40.588;49.684;2022-12-07T06:36:09;13.48;;;5.40;;
60370;SDS011;48550;40.588;49.684;2022-12-07T06:38:35;13.43;;;5.18;;
60370;SDS011;48550;40.588;49.684;2022-12-07T06:41:01;15.98;;;4.78;;
60370;SDS011;48550;40.588;49.684;2022-12-07T06:43:27;15.18;;;6.07;;
60370;SDS011;48550;40.588;49.684;2022-12-07T06:45:53;20.35;;;7.45;;
60370;SDS011;48550;40.588;49.684;2022-12-07T06:48:19;23.67;;;9.15;;
60370;SDS011;48550;40.588;49.684;2022-12-07T06:50:45;12.88;;;6.15;;
60370;SDS011;48550;40.588;49.684;2022-12-07T06:53:11;11.45;;;5.25;;
60370;SDS011;48550;40.588;49.684;2022-12-07T06:55:37;12.98;;;6.75;;
60370;SDS011;48550;40.588;49.684;2022-12-07T06:58:02;17.90;;;5.28;;
60370;SDS011;48550;40.588;49.684;2022-12-07T07:00:28;10.68;;;3.83;;
60370;SDS011;48550;40.588;49.684;2022-12-07T07:02:54;11.63;;;4.47;;
60370;SDS011;48550;40.588;49.684;2022-12-07T07:05:20;17.65;;;3.70;;
60370;SDS011;48550;40.588;49.684;2022-12-07T07:07:49;10.65;;;3.60;;
60370;SDS011;48550;40.588;49.684;2022-12-07T07:10:15;9.48;;;3.65;;
60370;SDS011;48550;40.588;49.684;2022-12-07T07:12:41;7.60;;;3.53;;
60370;SDS011;48550;40.588;49.684;2022-12-07T07:15:07;14.55;;;4.00;;
60370;SDS011;48550;40.588;49.684;2022-12-07T07:17:33;9.50;;;4.13;;
60370;SDS011;48550;40.588;49.684;2022-12-07T07:19:58;13.20;;;3.55;;
60370;SDS011;48550;40.588;49.684;2022-12-07T07:22:24;15.35;;;4.43;;
60370;SDS011;48550;40.588;49.684;2022-12-07T07:24:50;12.15;;;3.80;;
60370;SDS011;48550;40.588;49.684;2022-12-07T07:27:16;12.52;;;4.05;;
60370;SDS011;48550;40.588;49.684;2022-12-07T07:29:41;9.15;;;4.50;;
60370;SDS011;48550;40.588;49.684;2022-12-07T07:32:07;8.77;;;3.92;;
60370;SDS011;48550;40.588;49.684;2022-12-07T07:34:33;8.52;;;3.53;;
60370;SDS011;48550;40.588;49.684;2022-12-07T07:36:59;11.70;;;4.15;;
60370;SDS011;48550;40.588;49.684;2022-12-07T07:39:24;7.93;;;3.47;;
60370;SDS011;48550;40.588;49.684;2022-12-07T07:41:50;9.82;;;4.18;;
60370;SDS011;48550;40.588;49.684;2022-12-07T07:44:16;10.98;;;3.95;;
60370;SDS011;48550;40.588;49.684;2022-12-07T07:46:42;7.10;;;3.40;;
60370;SDS011;48550;40.588;49.684;2022-12-07T07:49:08;9.25;;;3.20;;
60370;SDS011;48550;40.588;49.684;2022-12-07T07:51:35;11.45;;;3.35;;
60370;SDS011;48550;40.588;49.684;2022-12-07T07:54:02;9.00;;;3.15;;
60370;SDS011;48550;40.588;49.684;2022-12-07T07:56:28;7.10;;;2.80;;
60370;SDS011;48550;40.588;49.684;2022-12-07T07:58:54;7.45;;;3.40;;
60370;SDS011;48550;40.588;49.684;2022-12-07T08:01:20;14.23;;;4.13;;
60370;SDS011;48550;40.588;49.684;2022-12-07T08:03:46;7.85;;;3.47;;
60370;SDS011;48550;40.588;49.684;2022-12-07T08:06:12;10.98;;;3.05;;
60370;SDS011;48550;40.588;49.684;2022-12-07T08:08:38;10.60;;;3.53;;
60370;SDS011;48550;40.588;49.684;2022-12-07T08:11:07;6.60;;;2.90;;
60370;SDS011;48550;40.588;49.684;2022-12-07T08:13:34;9.48;;;3.58;;
60370;SDS011;48550;40.588;49.684;2022-12-07T08:16:07;10.93;;;3.22;;
60370;SDS011;48550;40.588;49.684;2022-12-07T08:18:37;11.65;;;3.60;;
60370;SDS011;48550;40.588;49.684;2022-12-07T08:21:04;10.50;;;3.92;;
60370;SDS011;48550;40.588;49.684;2022-12-07T08:23:31;10.05;;;3.97;;
60370;SDS011;48550;40.588;49.684;2022-12-07T08:26:03;7.50;;;3.45;;
60370;SDS011;48550;40.588;49.684;2022-12-07T08:28:32;7.80;;;2.80;;
60370;SDS011;48550;40.588;49.684;2022-12-07T08:30:58;9.50;;;3.25;;
60370;SDS011;48550;40.588;49.684;2022-12-07T08:33:28;9.32;;;3.67;;
60370;SDS011;48550;40.588;49.684;2022-12-07T08:35:54;8.90;;;3.10;;
60370;SDS011;48550;40.588;49.684;2022-12-07T08:38:20;5.10;;;2.50;;
60370;SDS011;48550;40.588;49.684;2022-12-07T08:40:53;7.57;;;2.80;;
60370;SDS011;48550;40.588;49.684;2022-12-07T08:43:20;7.35;;;2.97;;
60370;SDS011;48550;40.588;49.684;2022-12-07T08:45:46;6.00;;;2.83;;
60370;SDS011;48550;40.588;49.684;2022-12-07T08:48:21;8.18;;;2.95;;
60370;SDS011;48550;40.588;49.684;2022-12-07T08:50:49;9.68;;;2.58;;
60370;SDS011;48550;40.588;49.684;2022-12-07T08:53:16;10.20;;;3.30;;
60370;SDS011;48550;40.588;49.684;2022-12-07T08:55:43;7.72;;;2.67;;
60370;SDS011;48550;40.588;49.684;2022-12-07T08:58:10;9.65;;;2.72;;
60370;SDS011;48550;40.588;49.684;2022-12-07T09:00:35;9.18;;;3.00;;
60370;SDS011;48550;40.588;49.684;2022-12-07T09:03:01;6.90;;;2.80;;
60370;SDS011;48550;40.588;49.684;2022-12-07T09:05:27;8.18;;;2.92;;
60370;SDS011;48550;40.588;49.684;2022-12-07T09:07:54;15.43;;;2.72;;
60370;SDS011;48550;40.588;49.684;2022-12-07T09:10:25;7.35;;;2.80;;
60370;SDS011;48550;40.588;49.684;2022-12-07T09:12:51;6.68;;;2.85;;
60370;SDS011;48550;40.588;49.684;2022-12-07T09:15:17;5.68;;;2.40;;
60370;SDS011;48550;40.588;49.684;2022-12-07T09:17:42;19.55;;;3.33;;
60370;SDS011;48550;40.588;49.684;2022-12-07T09:20:08;6.75;;;3.10;;
60370;SDS011;48550;40.588;49.684;2022-12-07T09:22:34;5.55;;;2.60;;
60370;SDS011;48550;40.588;49.684;2022-12-07T09:25:00;7.50;;;3.22;;
60370;SDS011;48550;40.588;49.684;2022-12-07T09:27:27;7.47;;;2.72;;
60370;SDS011;48550;40.588;49.684;2022-12-07T09:29:53;6.82;;;2.33;;
60370;SDS011;48550;40.588;49.684;2022-12-07T09:32:19;5.57;;;2.40;;
60370;SDS011;48550;40.588;49.684;2022-12-07T09:34:45;9.77;;;3.13;;
60370;SDS011;48550;40.588;49.684;2022-12-07T09:37:10;5.32;;;2.15;;
60370;SDS011;48550;40.588;49.684;2022-12-07T09:39:39;7.35;;;2.47;;
60370;SDS011;48550;40.588;49.684;2022-12-07T09:42:06;12.50;;;2.50;;
60370;SDS011;48550;40.588;49.684;2022-12-07T09:44:33;6.45;;;2.60;;
60370;SDS011;48550;40.588;49.684;2022-12-07T09:47:00;6.40;;;2.42;;
60370;SDS011;48550;40.588;49.684;2022-12-07T09:49:30;8.05;;;2.75;;
60370;SDS011;48550;40.588;49.684;2022-12-07T09:54:47;9.30;;;4.10;;
60370;SDS011;48550;40.588;49.684;2022-12-07T09:57:14;5.55;;;2.58;;
60370;SDS011;48550;40.588;49.684;2022-12-07T09:59:41;6.22;;;2.75;;
60370;SDS011;48550;40.588;49.684;2022-12-07T10:02:30;6.90;;;2.47;;
60370;SDS011;48550;40.588;49.684;2022-12-07T10:05:11;6.22;;;2.83;;
60370;SDS011;48550;40.588;49.684;2022-12-07T10:07:39;5.18;;;2.53;;
60370;SDS011;48550;40.588;49.684;2022-12-07T10:10:19;5.55;;;2.33;;
60370;SDS011;48550;40.588;49.684;2022-12-07T10:13:00;4.38;;;2.28;;
60370;SDS011;48550;40.588;49.684;2022-12-07T10:15:40;12.45;;;4.38;;
60370;SDS011;48550;40.588;49.684;2022-12-07T10:18:20;11.30;;;3.72;;
60370;SDS011;48550;40.588;49.684;2022-12-07T10:20:59;6.22;;;3.03;;
60370;SDS011;48550;40.588;49.684;2022-12-07T10:23:42;11.45;;;5.20;;
60370;SDS011;48550;40.588;49.684;2022-12-07T10:26:30;9.00;;;4.95;;
60370;SDS011;48550;40.588;49.684;2022-12-07T10:29:23;5.55;;;2.67;;
60370;SDS011;48550;40.588;49.684;2022-12-07T10:31:53;8.30;;;2.95;;
60370;SDS011;48550;40.588;49.684;2022-12-07T10:34:26;8.57;;;4.40;;
60370;SDS011;48550;40.588;49.684;2022-12-07T10:37:16;4.45;;;2.38;;
60370;SDS011;48550;40.588;49.684;2022-12-07T10:42:17;12.93;;;5.85;;
60370;SDS011;48550;40.588;49.684;2022-12-07T10:45:07;9.32;;;3.95;;
60370;SDS011;48550;40.588;49.684;2022-12-07T10:53:09;7.93;;;3.10;;
60370;SDS011;48550;40.588;49.684;2022-12-07T10:58:26;14.73;;;4.07;;
60370;SDS011;48550;40.588;49.684;2022-12-07T11:06:43;9.00;;;4.10;;
60370;SDS011;48550;40.588;49.684;2022-12-07T11:20:43;18.40;;;8.50;;
60370;SDS011;48550;40.588;49.684;2022-12-07T11:23:29;19.17;;;9.73;;
60370;SDS011;48550;40.588;49.684;2022-12-07T11:37:33;14.45;;;5.68;;
60370;SDS011;48550;40.588;49.684;2022-12-07T11:40:24;15.18;;;6.80;;
60370;SDS011;48550;40.588;49.684;2022-12-07T11:42:58;12.90;;;6.10;;
60370;SDS011;48550;40.588;49.684;2022-12-07T11:45:31;13.02;;;5.72;;
60370;SDS011;48550;40.588;49.684;2022-12-07T11:48:02;11.60;;;6.28;;
60370;SDS011;48550;40.588;49.684;2022-12-07T11:50:37;8.38;;;4.88;;
60370;SDS011;48550;40.588;49.684;2022-12-07T12:01:31;6.18;;;3.65;;
60370;SDS011;48550;40.588;49.684;2022-12-07T12:04:13;11.90;;;4.13;;
60370;SDS011;48550;40.588;49.684;2022-12-07T12:07:07;9.20;;;4.60;;
60370;SDS011;48550;40.588;49.684;2022-12-07T12:09:48;13.57;;;3.75;;
60370;SDS011;48550;40.588;49.684;2022-12-07T12:12:21;14.95;;;5.88;;
60370;SDS011;48550;40.588;49.684;2022-12-07T12:15:15;8.45;;;3.47;;
60370;SDS011;48550;40.588;49.684;2022-12-07T12:20:20;10.77;;;4.43;;
60370;SDS011;48550;40.588;49.684;2022-12-07T12:22:52;13.80;;;5.00;;
60370;SDS011;48550;40.588;49.684;2022-12-07T12:25:26;7.78;;;3.22;;
60370;SDS011;48550;40.588;49.684;2022-12-07T12:27:55;6.72;;;3.20;;
60370;SDS011;48550;40.588;49.684;2022-12-07T12:30:44;8.00;;;3.47;;
60370;SDS011;48550;40.588;49.684;2022-12-07T12:33:13;12.20;;;3.17;;
60370;SDS011;48550;40.588;49.684;2022-12-07T12:36:05;10.32;;;4.03;;
60370;SDS011;48550;40.588;49.684;2022-12-07T12:39:07;11.07;;;4.05;;
60370;SDS011;48550;40.588;49.684;2022-12-07T12:44:38;8.13;;;3.80;;
60370;SDS011;48550;40.588;49.684;2022-12-07T12:50:20;11.27;;;4.38;;
60370;SDS011;48550;40.588;49.684;2022-12-07T12:58:37;12.02;;;4.90;;
60370;SDS011;48550;40.588;49.684;2022-12-07T13:04:01;13.65;;;4.53;;
60370;SDS011;48550;40.588;49.684;2022-12-07T13:06:33;11.40;;;5.07;;
60370;SDS011;48550;40.588;49.684;2022-12-07T13:09:03;12.57;;;4.50;;
60370;SDS011;48550;40.588;49.684;2022-12-07T13:11:38;14.18;;;5.07;;
60370;SDS011;48550;40.588;49.684;2022-12-07T13:20:00;12.10;;;4.45;;
60370;SDS011;48550;40.588;49.684;2022-12-07T13:24:57;19.65;;;5.03;;
60370;SDS011;48550;40.588;49.684;2022-12-07T13:27:31;11.35;;;4.18;;
60370;SDS011;48550;40.588;49.684;2022-12-07T13:29:58;13.65;;;5.22;;
60370;SDS011;48550;40.588;49.684;2022-12-07T13:32:25;11.07;;;4.50;;
60370;SDS011;48550;40.588;49.684;2022-12-07T13:34:52;9.27;;;4.40;;
60370;SDS011;48550;40.588;49.684;2022-12-07T13:37:28;12.18;;;4.40;;
60370;SDS011;48550;40.588;49.684;2022-12-07T13:39:58;11.73;;;4.50;;
60370;SDS011;48550;40.588;49.684;2022-12-07T13:42:32;11.93;;;4.93;;
60370;SDS011;48550;40.588;49.684;2022-12-07T13:45:13;11.38;;;4.50;;
60370;SDS011;48550;40.588;49.684;2022-12-07T13:48:30;17.95;;;4.93;;
60370;SDS011;48550;40.588;49.684;2022-12-07T13:50:58;12.63;;;4.60;;
60370;SDS011;48550;40.588;49.684;2022-12-07T13:53:26;13.50;;;5.53;;
60370;SDS011;48550;40.588;49.684;2022-12-07T13:55:59;19.85;;;5.30;;
60370;SDS011;48550;40.588;49.684;2022-12-07T13:58:27;13.40;;;5.55;;
60370;SDS011;48550;40.588;49.684;2022-12-07T14:00:56;13.90;;;5.80;;
60370;SDS011;48550;40.588;49.684;2022-12-07T14:03:25;13.25;;;4.82;;
60370;SDS011;48550;40.588;49.684;2022-12-07T14:06:13;11.43;;;5.18;;
60370;SDS011;48550;40.588;49.684;2022-12-07T14:08:50;13.32;;;5.03;;
60370;SDS011;48550;40.588;49.684;2022-12-07T14:11:30;11.82;;;5.07;;
60370;SDS011;48550;40.588;49.684;2022-12-07T14:13:58;14.63;;;5.63;;
60370;SDS011;48550;40.588;49.684;2022-12-07T14:16:31;17.98;;;5.97;;
60370;SDS011;48550;40.588;49.684;2022-12-07T14:19:00;9.57;;;3.70;;
60370;SDS011;48550;40.588;49.684;2022-12-07T14:21:29;15.77;;;4.45;;
60370;SDS011;48550;40.588;49.684;2022-12-07T14:24:11;13.77;;;4.85;;
60370;SDS011;48550;40.588;49.684;2022-12-07T14:26:42;12.27;;;5.13;;
60370;SDS011;48550;40.588;49.684;2022-12-07T14:29:29;9.48;;;3.97;;
60370;SDS011;48550;40.588;49.684;2022-12-07T14:31:57;13.65;;;5.07;;
60370;SDS011;48550;40.588;49.684;2022-12-07T14:34:29;10.88;;;4.25;;
60370;SDS011;48550;40.588;49.684;2022-12-07T14:36:55;9.77;;;4.38;;
60370;SDS011;48550;40.588;49.684;2022-12-07T14:39:21;9.52;;;3.95;;
60370;SDS011;48550;40.588;49.684;2022-12-07T14:41:47;15.63;;;3.70;;
60370;SDS011;48550;40.588;49.684;2022-12-07T14:44:15;15.40;;;5.70;;
60370;SDS011;48550;40.588;49.684;2022-12-07T14:46:42;7.57;;;3.60;;
60370;SDS011;48550;40.588;49.684;2022-12-07T14:49:08;7.45;;;3.55;;
60370;SDS011;48550;40.588;49.684;2022-12-07T14:51:34;13.48;;;3.72;;
60370;SDS011;48550;40.588;49.684;2022-12-07T14:54:02;11.00;;;3.92;;
60370;SDS011;48550;40.588;49.684;2022-12-07T14:56:30;10.73;;;3.60;;
60370;SDS011;48550;40.588;49.684;2022-12-07T14:58:56;11.25;;;3.88;;
60370;SDS011;48550;40.588;49.684;2022-12-07T15:01:22;8.48;;;4.18;;
60370;SDS011;48550;40.588;49.684;2022-12-07T15:03:48;9.23;;;3.83;;
60370;SDS011;48550;40.588;49.684;2022-12-07T15:06:15;5.93;;;3.20;;
60370;SDS011;48550;40.588;49.684;2022-12-07T15:08:42;10.07;;;3.08;;
60370;SDS011;48550;40.588;49.684;2022-12-07T15:11:16;17.08;;;5.38;;
60370;SDS011;48550;40.588;49.684;2022-12-07T15:13:43;8.02;;;3.20;;
60370;SDS011;48550;40.588;49.684;2022-12-07T15:16:27;9.20;;;4.20;;
60370;SDS011;48550;40.588;49.684;2022-12-07T15:18:53;11.07;;;4.10;;
60370;SDS011;48550;40.588;49.684;2022-12-07T15:21:19;10.50;;;4.10;;
60370;SDS011;48550;40.588;49.684;2022-12-07T15:23:46;14.45;;;4.03;;
60370;SDS011;48550;40.588;49.684;2022-12-07T15:26:12;10.32;;;4.05;;
60370;SDS011;48550;40.588;49.684;2022-12-07T15:28:39;10.68;;;4.60;;
60370;SDS011;48550;40.588;49.684;2022-12-07T15:31:12;21.85;;;5.97;;
60370;SDS011;48550;40.588;49.684;2022-12-07T15:33:39;14.38;;;4.75;;
60370;SDS011;48550;40.588;49.684;2022-12-07T15:36:05;9.70;;;4.10;;
60370;SDS011;48550;40.588;49.684;2022-12-07T15:38:31;19.52;;;5.47;;
60370;SDS011;48550;40.588;49.684;2022-12-07T15:40:57;11.10;;;4.65;;
60370;SDS011;48550;40.588;49.684;2022-12-07T15:43:23;9.48;;;4.03;;
60370;SDS011;48550;40.588;49.684;2022-12-07T15:46:07;8.38;;;3.20;;
60370;SDS011;48550;40.588;49.684;2022-12-07T15:48:32;13.48;;;4.55;;
60370;SDS011;48550;40.588;49.684;2022-12-07T15:51:05;32.20;;;5.15;;
60370;SDS011;48550;40.588;49.684;2022-12-07T15:53:32;9.70;;;3.70;;
60370;SDS011;48550;40.588;49.684;2022-12-07T15:55:58;10.75;;;4.53;;
60370;SDS011;48550;40.588;49.684;2022-12-07T15:58:24;14.05;;;4.03;;
60370;SDS011;48550;40.588;49.684;2022-12-07T16:00:50;9.98;;;3.85;;
60370;SDS011;48550;40.588;49.684;2022-12-07T16:03:16;12.70;;;3.53;;
60370;SDS011;48550;40.588;49.684;2022-12-07T16:05:41;14.68;;;4.30;;
60370;SDS011;48550;40.588;49.684;2022-12-07T16:08:13;10.10;;;4.03;;
60370;SDS011;48550;40.588;49.684;2022-12-07T16:10:39;9.73;;;4.32;;
60370;SDS011;48550;40.588;49.684;2022-12-07T16:13:08;14.90;;;4.22;;
60370;SDS011;48550;40.588;49.684;2022-12-07T16:15:38;10.73;;;3.70;;
60370;SDS011;48550;40.588;49.684;2022-12-07T16:18:07;14.68;;;4.65;;
60370;SDS011;48550;40.588;49.684;2022-12-07T16:20:32;11.43;;;3.70;;
60370;SDS011;48550;40.588;49.684;2022-12-07T16:22:58;10.98;;;4.50;;
60370;SDS011;48550;40.588;49.684;2022-12-07T16:25:24;9.88;;;4.20;;
60370;SDS011;48550;40.588;49.684;2022-12-07T16:27:50;12.10;;;4.45;;
60370;SDS011;48550;40.588;49.684;2022-12-07T16:30:17;12.85;;;4.70;;
60370;SDS011;48550;40.588;49.684;2022-12-07T16:32:42;16.77;;;4.82;;